Portada
METAR-TAF:

METAR-TAF

Aeropuertos :

Aeropuerto Internacional Juan Santamaría

San José, Costa Rica

latitud: 10-00N, longitud: 084-13W, altitud: 920 m

Observación

El informe se hizo hace 1 hora y 4 minutos, a las 17:00 UTC
Viento 11 kt del este-sureste, variando entre este y sur-sureste
Temperatura 26°C
Humedad 61%
Presión 1017 hPa
Visibilidad 10 km o más
Nubes dispersas a una altura de 3500 ft
Cielo nuboso a una altura de 8000 ft

METAR: MROC 011700Z 12011KT 080V160 9999 SCT035 BKN080 26/18 A3002 NOSIG

Hora: 12:04 (18:04 UTC)

Pronóstico

El informe se hizo hace 1 hora y 4 minutos, a las 17:00 UTC
Pronóstico válido del 01 a las 18 UTC al 02 a las 18 UTC
Viento 11 kt del este-sureste
Visibilidad 10 km o más
Escasas nubes a una altura de 3000 ft
Nubes dispersas a una altura de 8000 ft

TAF: MROC 011700Z 0118/0218 11011KT 9999 FEW030 SCT080 TX28/0119Z TN19/0211Z

Observaciones y pronósticos meteorológicos de más de 4000 aeropuertos (mensajes METAR y TAF).

Los puntos amarillos y rojos representan las estaciones disponibles.

Ponga el ratón en el punto deseado para ver el nombre de la estación.

Haga clic para ver las observaciones y los pronósticos meteorológicos.

Para cambiar el mapa : haga clic en los botones verdes con una cruz de color negro para hacer un zoom, en el botón verde con un guión para alejar o en las flechas verdes para mapas adyacentes.


METAR-TAF: